Time;durP1;ratioP1;P1;durP2;ratioP2;P2;SDS_P1;SDS_P2;PMS_P1;PMS_P2;Temp;Humidity;BMP_temperature;BMP_pressure;BME280_temperature;BME280_humidity;BME280_pressure;Samples;Min_cycle;Max_cycle;Signal;HPM_P1;HPM_P2
2023/06/08 00:00:58;;;;;;;;;;;;;;;;;;5031734;28;5238;-58
2023/06/08 00:03:23;;;;;;;;;;;;;;;;;;5041035;28;3698;-59
2023/06/08 00:05:50;;;;;;;;;;;;;;;;;;5037869;28;6006;-58
2023/06/08 00:08:15;;;;;;;;;;;;;;;;;;5029825;28;4491;-58
2023/06/08 00:10:41;;;;;;;;;;;;;;;;;;5030517;28;4518;-57
2023/06/08 00:13:06;;;;;;;;;;;;;;;;;;5031653;28;4674;-60
2023/06/08 00:15:32;;;;;;;;;;;;;;;;;;5038490;28;3667;-58
2023/06/08 00:17:58;;;;;;;;;;;;;;;;;;5032488;28;4650;-57
2023/06/08 00:20:24;;;;;;;;;;;;;;;;;;5029751;28;4932;-57
2023/06/08 00:22:51;;;;;;;;;;;;;;;;;;5033632;28;4524;-58
2023/06/08 00:25:16;;;;;;;;;;;;;;;;;;5027852;28;4571;-58
2023/06/08 00:27:41;;;;;;;;;;;;;;;;;;5031347;28;4968;-57
2023/06/08 00:30:07;;;;;;;;;;;;;;;;;;5041733;28;3691;-59
2023/06/08 00:32:32;;;;;;;;;;;;;;;;;;5035405;28;4419;-58
2023/06/08 00:34:57;;;;;;;;;;;;;;;;;;5031556;28;4680;-57
2023/06/08 00:37:22;;;;;;;;;;;;;;;;;;5035522;28;4548;-57
2023/06/08 00:39:49;;;;;;;;;;;;;;;;;;5035436;28;4745;-58
2023/06/08 00:42:14;;;;;;;;;;;;;;;;;;5033073;28;3392;-58
2023/06/08 00:44:40;;;;;;;;;;;;;;;;;;5042078;28;4699;-58
2023/06/08 00:47:05;;;;;;;;;;;;;;;;;;5033924;28;5085;-59
2023/06/08 00:49:31;;;;;;;;;;;;;;;;;;5032577;28;4986;-59
2023/06/08 00:51:57;;;;;;;;;;;;;;;;;;5039381;28;4520;-58
2023/06/08 00:54:24;;;;;;;;;;;;;;;;;;5031791;28;3494;-57
2023/06/08 00:56:49;;;;;;;;;;;;;;;;;;5036916;28;4811;-59
2023/06/08 00:59:15;;;;;;;;;;;;;;;;;;5066499;28;5221;-58
2023/06/08 01:01:40;;;;;;;;;;;;;;;;;;5032090;28;5506;-58
2023/06/08 01:04:05;;;;;;;;;;;;;;;;;;5034553;28;4569;-58
2023/06/08 01:06:35;;;;;;;;;;;;;;;;;;5037224;28;3594;-58
2023/06/08 01:09:12;;;;;;;;;;;;;;;;;;5034094;28;5037;-58
2023/06/08 01:11:43;;;;;;;;;;;;;;;;;;5033903;28;4991;-58
2023/06/08 01:14:15;;;;;;;;;;;;;;;;;;5037662;28;4645;-57
2023/06/08 01:16:44;;;;;;;;;;;;;;;;;;5031094;28;4721;-58
2023/06/08 01:19:10;;;;;;;;;;;;;;;;;;5031768;28;4650;-57
2023/06/08 01:21:54;;;;;;;;;;;;;;;;;;5021971;28;4527;-58
2023/06/08 01:24:20;;;;;;;;;;;;;;;;;;5041500;28;3714;-59
2023/06/08 01:26:49;;;;;;;;;;;;;;;;;;5035801;28;4544;-59
2023/06/08 01:29:15;;;;;;;;;;;;;;;;;;5029537;28;4669;-57
2023/06/08 01:31:40;;;;;;;;;;;;;;;;;;5032081;28;4495;-59
2023/06/08 01:34:06;;;;;;;;;;;;;;;;;;5040959;28;4542;-58
2023/06/08 01:36:39;;;;;;;;;;;;;;;;;;5054703;28;3325;-59
2023/06/08 01:39:07;;;;;;;;;;;;;;;;;;5031840;28;4431;-58
2023/06/08 01:41:33;;;;;;;;;;;;;;;;;;5035218;28;4571;-58
2023/06/08 01:43:58;;;;;;;;;;;;;;;;;;5035934;28;5136;-57
2023/06/08 01:46:23;;;;;;;;;;;;;;;;;;5026304;28;5146;-59
2023/06/08 01:48:49;;;;;;;;;;;;;;;;;;5042397;28;4459;-58
2023/06/08 01:51:15;;;;;;;;;;;;;;;;;;5036410;28;3930;-60
2023/06/08 01:53:40;;;;;;;;;;;;;;;;;;5037466;28;5004;-58
2023/06/08 01:56:06;;;;;;;;;;;;;;;;;;5041777;28;4659;-58
2023/06/08 01:58:31;;;;;;;;;;;;;;;;;;5033488;28;5136;-57
2023/06/08 02:00:56;;;;;;;;;;;;;;;;;;5038614;28;4673;-60
2023/06/08 02:03:21;;;;;;;;;;;;;;;;;;5036472;28;3203;-59
2023/06/08 02:05:47;;;;;;;;;;;;;;;;;;5068529;28;4941;-58
2023/06/08 02:08:12;;;;;;;;;;;;;;;;;;5034616;28;4515;-59
2023/06/08 02:10:38;;;;;;;;;;;;;;;;;;5033417;28;4973;-58
2023/06/08 02:13:03;;;;;;;;;;;;;;;;;;5028533;28;5087;-58
2023/06/08 02:15:28;;;;;;;;;;;;;;;;;;5037720;28;3246;-58
2023/06/08 02:17:53;;;;;;;;;;;;;;;;;;5030836;28;5209;-58
2023/06/08 02:20:19;;;;;;;;;;;;;;;;;;5035454;28;4438;-58
2023/06/08 02:22:45;;;;;;;;;;;;;;;;;;5035810;28;4506;-59
2023/06/08 02:25:10;;;;;;;;;;;;;;;;;;5033803;28;5207;-58
2023/06/08 02:27:36;;;;;;;;;;;;;;;;;;5036820;28;4720;-59
2023/06/08 02:30:02;;;;;;;;;;;;;;;;;;5034126;28;3481;-58
2023/06/08 02:32:32;;;;;;;;;;;;;;;;;;5028998;28;4455;-57
2023/06/08 02:34:58;;;;;;;;;;;;;;;;;;5038270;28;4580;-58
2023/06/08 02:37:23;;;;;;;;;;;;;;;;;;5030382;28;4518;-58
2023/06/08 02:39:49;;;;;;;;;;;;;;;;;;5037315;28;4692;-57
2023/06/08 02:42:14;;;;;;;;;;;;;;;;;;5071453;28;3454;-58
2023/06/08 02:44:39;;;;;;;;;;;;;;;;;;5034001;28;4834;-58
2023/06/08 02:47:05;;;;;;;;;;;;;;;;;;5038326;28;4546;-58
2023/06/08 02:49:30;;;;;;;;;;;;;;;;;;5035788;28;5197;-58
2023/06/08 02:51:55;;;;;;;;;;;;;;;;;;5032887;28;4816;-57
2023/06/08 02:54:21;;;;;;;;;;;;;;;;;;5035829;28;3251;-57
2023/06/08 02:56:46;;;;;;;;;;;;;;;;;;5036860;28;4820;-59
2023/06/08 02:59:12;;;;;;;;;;;;;;;;;;5031608;28;4649;-58
2023/06/08 03:01:53;;;;;;;;;;;;;;;;;;5031858;28;4691;-60
2023/06/08 03:04:19;;;;;;;;;;;;;;;;;;5035364;28;4523;-57
2023/06/08 03:06:44;;;;;;;;;;;;;;;;;;5036889;28;4680;-58
2023/06/08 03:09:09;;;;;;;;;;;;;;;;;;5028458;28;3919;-57
2023/06/08 03:11:34;;;;;;;;;;;;;;;;;;5032590;28;4661;-58
2023/06/08 03:14:00;;;;;;;;;;;;;;;;;;5033876;28;4641;-59
2023/06/08 03:16:26;;;;;;;;;;;;;;;;;;5031978;28;4528;-58
2023/06/08 03:18:51;;;;;;;;;;;;;;;;;;5028939;28;4658;-59
2023/06/08 03:21:18;;;;;;;;;;;;;;;;;;5031840;28;3260;-58
2023/06/08 03:23:44;;;;;;;;;;;;;;;;;;5036908;28;4803;-59
2023/06/08 03:26:09;;;;;;;;;;;;;;;;;;5032478;28;4479;-60
2023/06/08 03:28:34;;;;;;;;;;;;;;;;;;5036331;28;5064;-58
2023/06/08 03:31:00;;;;;;;;;;;;;;;;;;5026722;28;4604;-59
2023/06/08 03:33:25;;;;;;;;;;;;;;;;;;5031294;28;3293;-58
2023/06/08 03:35:50;;;;;;;;;;;;;;;;;;5035599;28;4986;-58
2023/06/08 03:38:16;;;;;;;;;;;;;;;;;;5034209;28;4648;-57
2023/06/08 03:40:41;;;;;;;;;;;;;;;;;;5033263;28;4511;-58
2023/06/08 03:43:06;;;;;;;;;;;;;;;;;;5028265;28;5211;-57
2023/06/08 03:45:31;;;;;;;;;;;;;;;;;;5040220;28;3348;-56
2023/06/08 03:47:57;;;;;;;;;;;;;;;;;;5041929;28;4629;-59
2023/06/08 03:50:22;;;;;;;;;;;;;;;;;;5032739;28;4653;-59
2023/06/08 03:52:47;;;;;;;;;;;;;;;;;;5034411;28;4579;-59
2023/06/08 03:55:13;;;;;;;;;;;;;;;;;;5034414;28;4506;-57
2023/06/08 03:57:38;;;;;;;;;;;;;;;;;;5035086;28;4492;-59
2023/06/08 04:00:06;;;;;;;;;;;;;;;;;;5033942;28;3854;-59
2023/06/08 04:02:31;;;;;;;;;;;;;;;;;;5034544;28;4474;-59
2023/06/08 04:04:59;;;;;;;;;;;;;;;;;;5043036;28;4497;-60
2023/06/08 04:07:24;;;;;;;;;;;;;;;;;;5032745;28;4543;-58
2023/06/08 04:09:50;;;;;;;;;;;;;;;;;;5028372;28;5233;-58
2023/06/08 04:12:15;;;;;;;;;;;;;;;;;;5030902;28;3749;-58
2023/06/08 04:14:40;;;;;;;;;;;;;;;;;;5040827;28;5154;-58
2023/06/08 04:17:07;;;;;;;;;;;;;;;;;;5032549;28;4557;-57
2023/06/08 04:19:32;;;;;;;;;;;;;;;;;;5031248;28;4849;-58
2023/06/08 04:21:59;;;;;;;;;;;;;;;;;;5036866;28;4531;-58
2023/06/08 04:24:24;;;;;;;;;;;;;;;;;;5033831;28;3745;-58
2023/06/08 04:26:50;;;;;;;;;;;;;;;;;;5028829;28;4438;-58
2023/06/08 04:29:15;;;;;;;;;;;;;;;;;;5054202;28;5041;-57
2023/06/08 04:31:41;;;;;;;;;;;;;;;;;;5031411;28;4763;-58
2023/06/08 04:34:07;;;;;;;;;;;;;;;;;;5031764;28;4531;-59
2023/06/08 04:36:34;;;;;;;;;;;;;;;;;;5040749;28;3338;-57
2023/06/08 04:38:59;;;;;;;;;;;;;;;;;;5034540;28;4618;-58
2023/06/08 04:41:29;;;;;;;;;;;;;;;;;;5029003;28;4524;-58
2023/06/08 04:43:54;;;;;;;;;;;;;;;;;;5031020;28;4504;-59
2023/06/08 04:46:25;;;;;;;;;;;;;;;;;;5032658;28;5144;-58
2023/06/08 04:48:51;;;;;;;;;;;;;;;;;;5034181;28;4747;-59
2023/06/08 04:51:16;;;;;;;;;;;;;;;;;;5030147;28;3719;-57
2023/06/08 04:53:42;;;;;;;;;;;;;;;;;;5035232;28;4471;-57
2023/06/08 04:56:07;;;;;;;;;;;;;;;;;;5029729;28;4516;-58
2023/06/08 04:58:33;;;;;;;;;;;;;;;;;;5035750;28;4668;-59
2023/06/08 05:00:58;;;;;;;;;;;;;;;;;;5033588;28;5075;-57
2023/06/08 05:03:24;;;;;;;;;;;;;;;;;;5030727;28;3797;-57
2023/06/08 05:05:50;;;;;;;;;;;;;;;;;;5033164;28;4594;-58
2023/06/08 05:08:15;;;;;;;;;;;;;;;;;;5035022;28;4698;-60
2023/06/08 05:10:40;;;;;;;;;;;;;;;;;;5031737;28;4716;-59
2023/06/08 05:13:06;;;;;;;;;;;;;;;;;;5031981;28;4696;-59
2023/06/08 05:15:31;;;;;;;;;;;;;;;;;;5038519;28;3691;-58
2023/06/08 05:17:57;;;;;;;;;;;;;;;;;;5038841;28;4507;-60
2023/06/08 05:20:22;;;;;;;;;;;;;;;;;;5034493;28;5130;-58
2023/06/08 05:22:48;;;;;;;;;;;;;;;;;;5029972;28;5074;-61
2023/06/08 05:25:13;;;;;;;;;;;;;;;;;;5026041;28;4632;-60
2023/06/08 05:27:38;;;;;;;;;;;;;;;;;;5038278;28;3642;-59
2023/06/08 05:30:04;;;;;;;;;;;;;;;;;;5027058;28;4635;-61
2023/06/08 05:32:29;;;;;;;;;;;;;;;;;;5026983;28;4493;-59
2023/06/08 05:34:54;;;;;;;;;;;;;;;;;;5027542;28;4855;-61
2023/06/08 05:37:19;;;;;;;;;;;;;;;;;;5037691;28;4721;-60
2023/06/08 05:39:45;;;;;;;;;;;;;;;;;;5033778;28;5116;-66
2023/06/08 05:42:10;;;;;;;;;;;;;;;;;;5036543;28;3289;-55
2023/06/08 05:44:35;;;;;;;;;;;;;;;;;;5036595;28;5097;-56
2023/06/08 05:47:00;;;;;;;;;;;;;;;;;;5036339;28;4700;-54
2023/06/08 05:49:26;;;;;;;;;;;;;;;;;;5065020;28;4498;-66
2023/06/08 05:51:51;;;;;;;;;;;;;;;;;;5036086;28;4810;-64
2023/06/08 05:54:16;;;;;;;;;;;;;;;;;;5036410;28;3237;-66
2023/06/08 05:56:42;;;;;;;;;;;;;;;;;;5043321;28;4996;-66
2023/06/08 05:59:07;;;;;;;;;;;;;;;;;;5038837;28;4486;-66
2023/06/08 06:01:32;;;;;;;;;;;;;;;;;;5038719;28;5030;-65
2023/06/08 06:03:57;;;;;;;;;;;;;;;;;;5042068;28;4563;-65
2023/06/08 06:06:23;;;;;;;;;;;;;;;;;;5040197;28;1914;-66
2023/06/08 06:08:48;;;;;;;;;;;;;;;;;;5039456;28;4494;-65
2023/06/08 06:11:13;;;;;;;;;;;;;;;;;;5027655;28;4678;-63
2023/06/08 06:13:39;;;;;;;;;;;;;;;;;;5031907;28;4732;-63
2023/06/08 06:16:04;;;;;;;;;;;;;;;;;;5062043;28;5182;-62
2023/06/08 06:18:29;;;;;;;;;;;;;;;;;;5039849;28;4839;-62
2023/06/08 06:20:54;;;;;;;;;;;;;;;;;;5041688;28;4863;-62
2023/06/08 06:23:20;;;;;;;;;;;;;;;;;;5045586;28;5106;-62
2023/06/08 06:25:45;;;;;;;;;;;;;;;;;;5044645;28;4762;-62
2023/06/08 06:28:10;;;;;;;;;;;;;;;;;;5043605;28;4501;-63
2023/06/08 06:30:35;;;;;;;;;;;;;;;;;;5037894;28;4995;-63
2023/06/08 06:33:01;;;;;;;;;;;;;;;;;;5040953;28;3300;-63
2023/06/08 06:35:26;;;;;;;;;;;;;;;;;;5044920;28;5129;-64
2023/06/08 06:37:53;;;;;;;;;;;;;;;;;;5043535;28;4484;-64
2023/06/08 06:40:18;;;;;;;;;;;;;;;;;;5061968;28;6047;-64
2023/06/08 06:42:43;;;;;;;;;;;;;;;;;;5033637;28;4988;-64
2023/06/08 06:45:11;;;;;;;;;;;;;;;;;;5046479;28;3266;-64
2023/06/08 06:47:36;;;;;;;;;;;;;;;;;;5041831;28;4450;-63
2023/06/08 06:50:02;;;;;;;;;;;;;;;;;;5044806;28;5237;-63
2023/06/08 06:52:27;;;;;;;;;;;;;;;;;;5071425;28;5046;-63
2023/06/08 06:54:52;;;;;;;;;;;;;;;;;;5046807;28;4624;-64
2023/06/08 06:57:18;;;;;;;;;;;;;;;;;;5044198;28;3589;-64
2023/06/08 06:59:44;;;;;;;;;;;;;;;;;;5041552;28;4736;-63
2023/06/08 07:02:09;;;;;;;;;;;;;;;;;;5038803;28;5588;-64
2023/06/08 07:04:34;;;;;;;;;;;;;;;;;;5034095;28;5117;-63
2023/06/08 07:07:00;;;;;;;;;;;;;;;;;;5037935;28;5004;-64
2023/06/08 07:09:25;;;;;;;;;;;;;;;;;;5046626;28;1690;-63
2023/06/08 07:11:51;;;;;;;;;;;;;;;;;;5037839;28;4790;-63
2023/06/08 07:14:16;;;;;;;;;;;;;;;;;;5043509;28;5062;-63
2023/06/08 07:16:41;;;;;;;;;;;;;;;;;;5032422;28;4588;-64
2023/06/08 07:19:06;;;;;;;;;;;;;;;;;;5041718;28;4820;-63
2023/06/08 07:21:32;;;;;;;;;;;;;;;;;;5044105;28;1283;-64
2023/06/08 07:24:00;;;;;;;;;;;;;;;;;;5037253;28;4572;-64
2023/06/08 07:26:26;;;;;;;;;;;;;;;;;;5044602;28;4926;-63
2023/06/08 07:28:54;;;;;;;;;;;;;;;;;;5042520;28;5020;-63
2023/06/08 07:31:20;;;;;;;;;;;;;;;;;;5038923;28;4592;-57
2023/06/08 07:33:45;;;;;;;;;;;;;;;;;;5036673;28;4537;-57
2023/06/08 07:36:10;;;;;;;;;;;;;;;;;;5038549;28;3560;-57
2023/06/08 07:38:36;;;;;;;;;;;;;;;;;;5036800;28;5239;-57
2023/06/08 07:41:01;;;;;;;;;;;;;;;;;;5039486;28;4499;-57
2023/06/08 07:43:26;;;;;;;;;;;;;;;;;;5040218;28;4686;-57
2023/06/08 07:45:52;;;;;;;;;;;;;;;;;;5042073;28;5560;-56
2023/06/08 07:48:17;;;;;;;;;;;;;;;;;;5044779;28;1046;-58
2023/06/08 07:50:42;;;;;;;;;;;;;;;;;;5043715;28;4976;-57
2023/06/08 07:53:08;;;;;;;;;;;;;;;;;;5044514;28;4812;-57
2023/06/08 07:55:33;;;;;;;;;;;;;;;;;;5039266;28;5124;-57
2023/06/08 07:57:58;;;;;;;;;;;;;;;;;;5036199;28;5125;-58
2023/06/08 08:00:25;;;;;;;;;;;;;;;;;;5040356;28;1152;-57
2023/06/08 08:02:51;;;;;;;;;;;;;;;;;;5040303;28;4497;-59
2023/06/08 08:05:16;;;;;;;;;;;;;;;;;;5038456;28;5088;-57
2023/06/08 08:07:41;;;;;;;;;;;;;;;;;;5037260;28;5050;-57
2023/06/08 08:10:07;;;;;;;;;;;;;;;;;;5040972;28;4449;-57
2023/06/08 08:12:32;;;;;;;;;;;;;;;;;;5035657;28;3308;-56
2023/06/08 08:14:57;;;;;;;;;;;;;;;;;;5036018;28;5324;-57
2023/06/08 08:17:23;;;;;;;;;;;;;;;;;;5037495;28;5016;-57
2023/06/08 08:19:48;;;;;;;;;;;;;;;;;;5044070;28;5033;-57
2023/06/08 08:22:13;;;;;;;;;;;;;;;;;;5041853;28;4666;-58
2023/06/08 08:24:38;;;;;;;;;;;;;;;;;;5031782;28;4647;-56
2023/06/08 08:27:04;;;;;;;;;;;;;;;;;;5034741;28;3310;-56
2023/06/08 08:29:29;;;;;;;;;;;;;;;;;;5040824;28;4669;-58
2023/06/08 08:31:55;;;;;;;;;;;;;;;;;;5037461;28;4710;-58
2023/06/08 08:34:20;;;;;;;;;;;;;;;;;;5038420;28;5247;-58
2023/06/08 08:36:45;;;;;;;;;;;;;;;;;;5043917;28;4827;-58
2023/06/08 08:39:11;;;;;;;;;;;;;;;;;;5030698;28;1380;-58
2023/06/08 08:41:38;;;;;;;;;;;;;;;;;;5038642;28;4439;-57
2023/06/08 08:44:05;;;;;;;;;;;;;;;;;;5032702;28;4683;-57
2023/06/08 08:46:33;;;;;;;;;;;;;;;;;;5016838;28;4679;-56
2023/06/08 08:49:00;;;;;;;;;;;;;;;;;;5044857;28;4892;-57
2023/06/08 08:51:25;;;;;;;;;;;;;;;;;;5035064;28;1114;-57
2023/06/08 08:53:51;;;;;;;;;;;;;;;;;;5047150;28;4441;-57
2023/06/08 08:56:22;;;;;;;;;;;;;;;;;;5043003;28;5106;-57
2023/06/08 08:58:48;;;;;;;;;;;;;;;;;;5033752;28;4927;-58
2023/06/08 09:01:14;;;;;;;;;;;;;;;;;;5041981;28;4547;-57
2023/06/08 09:03:39;;;;;;;;;;;;;;;;;;5045861;28;4887;-57
2023/06/08 09:06:05;;;;;;;;;;;;;;;;;;5041336;28;3432;-57
2023/06/08 09:08:30;;;;;;;;;;;;;;;;;;5040849;28;4663;-57
2023/06/08 09:11:06;;;;;;;;;;;;;;;;;;5033092;28;4553;-57
2023/06/08 09:13:31;;;;;;;;;;;;;;;;;;5035932;28;5024;-58
2023/06/08 09:16:06;;;;;;;;;;;;;;;;;;5038338;28;4831;-58
2023/06/08 09:18:31;;;;;;;;;;;;;;;;;;5041866;28;4783;-57
2023/06/08 09:20:57;;;;;;;;;;;;;;;;;;5045677;28;5657;-57
2023/06/08 09:23:26;;;;;;;;;;;;;;;;;;5048597;28;4791;-57
2023/06/08 09:25:52;;;;;;;;;;;;;;;;;;5039171;28;5082;-56
2023/06/08 09:28:28;;;;;;;;;;;;;;;;;;5042245;28;4527;-56
2023/06/08 09:30:55;;;;;;;;;;;;;;;;;;5043663;28;5082;-57
2023/06/08 09:33:20;;;;;;;;;;;;;;;;;;5041897;28;973;-57
2023/06/08 09:35:47;;;;;;;;;;;;;;;;;;5036076;28;4535;-57
2023/06/08 09:38:21;;;;;;;;;;;;;;;;;;5040588;28;4844;-57
2023/06/08 09:40:49;;;;;;;;;;;;;;;;;;5042945;28;4539;-57
2023/06/08 09:43:31;;;;;;;;;;;;;;;;;;5036237;28;4692;-57
2023/06/08 09:45:56;;;;;;;;;;;;;;;;;;5044194;28;5095;-57
2023/06/08 09:48:21;;;;;;;;;;;;;;;;;;5036143;28;3182;-57
2023/06/08 09:50:47;;;;;;;;;;;;;;;;;;5048797;28;4496;-57
2023/06/08 09:53:12;;;;;;;;;;;;;;;;;;5043242;28;4722;-58
2023/06/08 09:55:38;;;;;;;;;;;;;;;;;;5022736;28;4540;-58
2023/06/08 09:58:03;;;;;;;;;;;;;;;;;;5039362;28;5311;-57
2023/06/08 10:00:29;;;;;;;;;;;;;;;;;;5035206;28;1169;-56
2023/06/08 10:02:55;;;;;;;;;;;;;;;;;;5031809;28;4442;-58
2023/06/08 10:05:22;;;;;;;;;;;;;;;;;;5035866;28;4597;-58
2023/06/08 10:07:47;;;;;;;;;;;;;;;;;;5040590;28;4485;-57
2023/06/08 10:10:17;;;;;;;;;;;;;;;;;;5040943;28;4695;-57
2023/06/08 10:12:43;;;;;;;;;;;;;;;;;;5024816;28;4469;-56
2023/06/08 10:15:08;;;;;;;;;;;;;;;;;;5045954;28;1169;-57
2023/06/08 10:17:34;;;;;;;;;;;;;;;;;;5038052;28;4775;-58
2023/06/08 10:19:59;;;;;;;;;;;;;;;;;;5036116;28;4456;-58
2023/06/08 10:22:25;;;;;;;;;;;;;;;;;;5041362;28;4686;-57
2023/06/08 10:24:50;;;;;;;;;;;;;;;;;;5035093;28;5044;-57
2023/06/08 10:27:24;;;;;;;;;;;;;;;;;;5041276;28;1977;-57
2023/06/08 10:29:57;;;;;;;;;;;;;;;;;;5037917;28;4622;-58
2023/06/08 10:32:32;;;;;;;;;;;;;;;;;;5043366;28;5137;-57
2023/06/08 10:34:58;;;;;;;;;;;;;;;;;;5046351;28;4476;-56
2023/06/08 10:37:27;;;;;;;;;;;;;;;;;;5036619;28;4934;-57
2023/06/08 10:39:52;;;;;;;;;;;;;;;;;;5040749;28;5116;-58
2023/06/08 10:42:20;;;;;;;;;;;;;;;;;;5039934;28;1090;-56
2023/06/08 10:44:52;;;;;;;;;;;;;;;;;;5040986;28;5479;-57
2023/06/08 10:47:18;;;;;;;;;;;;;;;;;;5032836;28;4673;-57
2023/06/08 10:49:51;;;;;;;;;;;;;;;;;;5033689;28;4621;-57
2023/06/08 10:52:17;;;;;;;;;;;;;;;;;;5035902;28;4557;-57
2023/06/08 10:54:58;;;;;;;;;;;;;;;;;;5042608;28;5171;-56
2023/06/08 10:57:42;;;;;;;;;;;;;;;;;;5036978;28;1195;-57
2023/06/08 11:00:26;;;;;;;;;;;;;;;;;;5045419;28;5083;-56
2023/06/08 11:02:58;;;;;;;;;;;;;;;;;;5041798;28;4711;-57
2023/06/08 11:05:23;;;;;;;;;;;;;;;;;;5042709;28;4701;-59
2023/06/08 11:07:49;;;;;;;;;;;;;;;;;;5041047;28;5123;-58
2023/06/08 11:10:14;;;;;;;;;;;;;;;;;;5039871;28;5036;-57
2023/06/08 11:12:39;;;;;;;;;;;;;;;;;;5040627;28;4553;-57
2023/06/08 11:15:05;;;;;;;;;;;;;;;;;;5044937;28;3230;-57
2023/06/08 11:17:31;;;;;;;;;;;;;;;;;;5040494;28;4500;-57
2023/06/08 11:19:56;;;;;;;;;;;;;;;;;;5038536;28;4529;-57
2023/06/08 11:22:22;;;;;;;;;;;;;;;;;;5038456;28;4704;-57
2023/06/08 11:24:47;;;;;;;;;;;;;;;;;;5040158;28;4747;-57
2023/06/08 11:27:16;;;;;;;;;;;;;;;;;;5042395;28;3331;-58
2023/06/08 11:29:42;;;;;;;;;;;;;;;;;;5039963;28;4992;-57
2023/06/08 11:32:10;;;;;;;;;;;;;;;;;;5039833;28;4507;-57
2023/06/08 11:34:36;;;;;;;;;;;;;;;;;;5041264;28;4493;-58
2023/06/08 11:37:01;;;;;;;;;;;;;;;;;;5041246;28;4886;-59
2023/06/08 11:39:32;;;;;;;;;;;;;;;;;;5034726;28;3288;-57
2023/06/08 11:41:57;;;;;;;;;;;;;;;;;;5043302;28;4841;-58
2023/06/08 11:44:25;;;;;;;;;;;;;;;;;;5039800;28;4941;-58
2023/06/08 11:46:50;;;;;;;;;;;;;;;;;;5037442;28;4446;-58
2023/06/08 11:49:16;;;;;;;;;;;;;;;;;;5065880;28;4670;-58
2023/06/08 11:51:44;;;;;;;;;;;;;;;;;;5041628;28;4499;-58
2023/06/08 11:54:09;;;;;;;;;;;;;;;;;;5045348;28;3189;-58
2023/06/08 11:56:35;;;;;;;;;;;;;;;;;;5046174;28;4451;-58
2023/06/08 11:59:02;;;;;;;;;;;;;;;;;;5038594;28;4481;-58
2023/06/08 12:01:28;;;;;;;;;;;;;;;;;;5037618;28;5004;-58
2023/06/08 12:03:53;;;;;;;;;;;;;;;;;;5043253;28;4962;-58
2023/06/08 12:06:19;;;;;;;;;;;;;;;;;;5040196;28;3385;-58
2023/06/08 12:08:44;;;;;;;;;;;;;;;;;;5039016;28;4455;-58
2023/06/08 12:11:10;;;;;;;;;;;;;;;;;;5034724;28;4661;-58
2023/06/08 12:13:37;;;;;;;;;;;;;;;;;;5034239;28;4496;-59
2023/06/08 12:16:04;;;;;;;;;;;;;;;;;;5035656;28;4830;-59
2023/06/08 12:18:30;;;;;;;;;;;;;;;;;;5041959;28;4717;-58
2023/06/08 12:20:55;;;;;;;;;;;;;;;;;;5040225;28;4608;-58
2023/06/08 12:23:20;;;;;;;;;;;;;;;;;;5043930;28;4768;-58
2023/06/08 12:25:45;;;;;;;;;;;;;;;;;;5041967;28;4517;-58
2023/06/08 12:28:22;;;;;;;;;;;;;;;;;;5037073;28;4512;-58
2023/06/08 12:30:47;;;;;;;;;;;;;;;;;;5042596;28;4516;-57
2023/06/08 12:33:17;;;;;;;;;;;;;;;;;;5044659;28;3396;-57
2023/06/08 12:35:42;;;;;;;;;;;;;;;;;;5035281;28;5030;-58
2023/06/08 12:38:08;;;;;;;;;;;;;;;;;;5037070;28;4681;-58
2023/06/08 12:40:33;;;;;;;;;;;;;;;;;;5044569;28;4833;-58
2023/06/08 12:42:58;;;;;;;;;;;;;;;;;;5047692;28;5054;-59
2023/06/08 12:45:23;;;;;;;;;;;;;;;;;;5041461;28;3507;-59
2023/06/08 12:47:49;;;;;;;;;;;;;;;;;;5045232;28;5047;-59
2023/06/08 12:50:17;;;;;;;;;;;;;;;;;;5048724;28;4439;-58
2023/06/08 12:52:42;;;;;;;;;;;;;;;;;;5044036;28;4467;-57
2023/06/08 12:55:07;;;;;;;;;;;;;;;;;;5047195;28;4619;-59
2023/06/08 12:57:33;;;;;;;;;;;;;;;;;;5046315;28;1198;-59
2023/06/08 12:59:58;;;;;;;;;;;;;;;;;;5042314;28;4911;-59
2023/06/08 13:02:25;;;;;;;;;;;;;;;;;;5040851;28;4578;-59
2023/06/08 13:04:51;;;;;;;;;;;;;;;;;;5043549;28;4668;-59
2023/06/08 13:07:16;;;;;;;;;;;;;;;;;;5042736;28;4541;-58
2023/06/08 13:09:41;;;;;;;;;;;;;;;;;;5046863;28;4690;-58
2023/06/08 13:12:07;;;;;;;;;;;;;;;;;;5043246;28;2251;-58
2023/06/08 13:14:33;;;;;;;;;;;;;;;;;;5043654;28;4974;-58
2023/06/08 13:16:59;;;;;;;;;;;;;;;;;;5039923;28;4706;-57
2023/06/08 13:19:24;;;;;;;;;;;;;;;;;;5035848;28;5055;-54
2023/06/08 13:21:49;;;;;;;;;;;;;;;;;;5041061;28;4627;-56
2023/06/08 13:24:15;;;;;;;;;;;;;;;;;;5048168;28;1039;-55
2023/06/08 13:26:40;;;;;;;;;;;;;;;;;;5045999;28;4538;-54
2023/06/08 13:29:06;;;;;;;;;;;;;;;;;;5046831;28;4985;-54
2023/06/08 13:31:31;;;;;;;;;;;;;;;;;;5042481;28;4449;-56
2023/06/08 13:33:56;;;;;;;;;;;;;;;;;;5046991;28;5265;-52
2023/06/08 13:36:22;;;;;;;;;;;;;;;;;;5046168;28;2046;-53
2023/06/08 13:38:47;;;;;;;;;;;;;;;;;;5026002;28;4989;-54
2023/06/08 13:41:12;;;;;;;;;;;;;;;;;;5041585;28;4532;-55
2023/06/08 13:43:38;;;;;;;;;;;;;;;;;;5048067;28;4645;-54
2023/06/08 13:46:04;;;;;;;;;;;;;;;;;;5040053;28;4706;-57
2023/06/08 13:48:30;;;;;;;;;;;;;;;;;;5046802;28;1182;-54
2023/06/08 13:50:56;;;;;;;;;;;;;;;;;;5047743;28;4426;-55
2023/06/08 13:53:21;;;;;;;;;;;;;;;;;;5043831;28;4555;-55
2023/06/08 13:55:47;;;;;;;;;;;;;;;;;;5031302;28;4511;-57
2023/06/08 13:58:12;;;;;;;;;;;;;;;;;;5034717;28;4778;-56
2023/06/08 14:00:37;;;;;;;;;;;;;;;;;;5066252;28;4672;-57
2023/06/08 14:03:03;;;;;;;;;;;;;;;;;;5038159;28;3314;-56
2023/06/08 14:05:28;;;;;;;;;;;;;;;;;;5038270;28;4652;-54
2023/06/08 14:07:53;;;;;;;;;;;;;;;;;;5038816;28;5008;-56
2023/06/08 14:10:19;;;;;;;;;;;;;;;;;;5037648;28;4506;-57
2023/06/08 14:12:44;;;;;;;;;;;;;;;;;;5044744;28;5055;-56
2023/06/08 14:15:10;;;;;;;;;;;;;;;;;;5043504;28;3059;-56
2023/06/08 14:17:35;;;;;;;;;;;;;;;;;;5044526;28;4821;-56
2023/06/08 14:20:00;;;;;;;;;;;;;;;;;;5042237;28;4503;-56
2023/06/08 14:22:26;;;;;;;;;;;;;;;;;;5041446;28;4893;-56
2023/06/08 14:24:51;;;;;;;;;;;;;;;;;;5045840;28;5423;-56
2023/06/08 14:27:16;;;;;;;;;;;;;;;;;;5040937;28;1977;-56
2023/06/08 14:29:41;;;;;;;;;;;;;;;;;;5047291;28;4957;-56
2023/06/08 14:32:07;;;;;;;;;;;;;;;;;;5035962;28;4449;-56
2023/06/08 14:34:33;;;;;;;;;;;;;;;;;;5039773;28;5090;-56
2023/06/08 14:36:58;;;;;;;;;;;;;;;;;;5041625;28;4639;-57
2023/06/08 14:39:23;;;;;;;;;;;;;;;;;;5041136;28;1361;-57
2023/06/08 14:41:48;;;;;;;;;;;;;;;;;;5039961;28;4474;-57
2023/06/08 14:44:14;;;;;;;;;;;;;;;;;;5041537;28;4964;-57
2023/06/08 14:46:39;;;;;;;;;;;;;;;;;;5035052;28;4814;-57
2023/06/08 14:49:05;;;;;;;;;;;;;;;;;;5039753;28;5285;-58
2023/06/08 14:51:30;;;;;;;;;;;;;;;;;;5037872;28;3800;-55
2023/06/08 14:53:55;;;;;;;;;;;;;;;;;;5033342;28;4421;-56
2023/06/08 14:56:20;;;;;;;;;;;;;;;;;;5043843;28;5066;-56
2023/06/08 14:58:46;;;;;;;;;;;;;;;;;;5045561;28;4975;-56
2023/06/08 15:01:12;;;;;;;;;;;;;;;;;;5041597;28;4569;-57
2023/06/08 15:03:38;;;;;;;;;;;;;;;;;;5071206;28;4815;-56
2023/06/08 15:06:03;;;;;;;;;;;;;;;;;;5031338;28;3306;-56
2023/06/08 15:08:28;;;;;;;;;;;;;;;;;;5031698;28;4779;-57
2023/06/08 15:10:53;;;;;;;;;;;;;;;;;;5033337;28;4684;-56
2023/06/08 15:13:19;;;;;;;;;;;;;;;;;;5066390;28;4634;-56
2023/06/08 15:15:46;;;;;;;;;;;;;;;;;;5034298;28;4503;-56
2023/06/08 15:18:11;;;;;;;;;;;;;;;;;;5063609;28;4645;-56
2023/06/08 15:20:37;;;;;;;;;;;;;;;;;;5036526;28;5112;-56
2023/06/08 15:23:02;;;;;;;;;;;;;;;;;;5045649;28;4979;-56
2023/06/08 15:25:28;;;;;;;;;;;;;;;;;;5041033;28;4555;-56
2023/06/08 15:27:53;;;;;;;;;;;;;;;;;;5036122;28;4641;-56
2023/06/08 15:30:19;;;;;;;;;;;;;;;;;;5044278;28;1332;-57
2023/06/08 15:32:44;;;;;;;;;;;;;;;;;;5043063;28;5066;-56
2023/06/08 15:35:09;;;;;;;;;;;;;;;;;;5039174;28;4508;-55
2023/06/08 15:37:35;;;;;;;;;;;;;;;;;;5040090;28;4552;-56
2023/06/08 15:40:00;;;;;;;;;;;;;;;;;;5052862;28;5008;-56
2023/06/08 15:42:26;;;;;;;;;;;;;;;;;;5042217;28;3205;-56
2023/06/08 15:44:52;;;;;;;;;;;;;;;;;;5043942;28;4817;-56
2023/06/08 15:47:17;;;;;;;;;;;;;;;;;;5035612;28;4468;-56
2023/06/08 15:49:43;;;;;;;;;;;;;;;;;;5034134;28;4809;-56
2023/06/08 15:52:08;;;;;;;;;;;;;;;;;;5048908;28;4758;-56
2023/06/08 15:54:34;;;;;;;;;;;;;;;;;;5042829;28;3358;-59
2023/06/08 15:57:00;;;;;;;;;;;;;;;;;;5037751;28;5147;-59
2023/06/08 15:59:25;;;;;;;;;;;;;;;;;;5044036;28;4894;-70
2023/06/08 16:01:50;;;;;;;;;;;;;;;;;;5039826;28;5164;-73
2023/06/08 16:04:16;;;;;;;;;;;;;;;;;;5034903;28;4493;-72
2023/06/08 16:06:42;;;;;;;;;;;;;;;;;;5045848;28;4481;-73
2023/06/08 16:09:09;;;;;;;;;;;;;;;;;;5043447;28;3591;-72
2023/06/08 16:11:34;;;;;;;;;;;;;;;;;;5036654;28;4507;-75
2023/06/08 16:14:00;;;;;;;;;;;;;;;;;;5057359;28;4471;-74
2023/06/08 16:16:25;;;;;;;;;;;;;;;;;;5043080;28;5178;-72
2023/06/08 16:18:53;;;;;;;;;;;;;;;;;;5041225;28;5068;-73
2023/06/08 16:21:18;;;;;;;;;;;;;;;;;;5045664;28;1190;-75
2023/06/08 16:23:44;;;;;;;;;;;;;;;;;;5047058;28;4998;-75
2023/06/08 16:26:09;;;;;;;;;;;;;;;;;;5043600;28;5137;-72
2023/06/08 16:28:34;;;;;;;;;;;;;;;;;;5040555;28;4622;-72
2023/06/08 16:30:59;;;;;;;;;;;;;;;;;;5038533;28;4466;-73
2023/06/08 16:33:25;;;;;;;;;;;;;;;;;;5046200;28;3045;-74
2023/06/08 16:35:50;;;;;;;;;;;;;;;;;;5057088;28;4472;-74
2023/06/08 16:38:17;;;;;;;;;;;;;;;;;;5037127;28;4473;-77
2023/06/08 16:40:42;;;;;;;;;;;;;;;;;;5041535;28;4524;-74
2023/06/08 16:43:07;;;;;;;;;;;;;;;;;;5040642;28;5071;-73
2023/06/08 16:45:33;;;;;;;;;;;;;;;;;;5044179;28;3180;-74
2023/06/08 16:47:58;;;;;;;;;;;;;;;;;;5040965;28;4643;-72
2023/06/08 16:50:23;;;;;;;;;;;;;;;;;;5041494;28;5083;-74
2023/06/08 16:52:49;;;;;;;;;;;;;;;;;;5037659;28;4435;-76
2023/06/08 16:55:15;;;;;;;;;;;;;;;;;;5045874;28;4437;-74